sensor_id;sensor_type;location;lat;lon;timestamp;P1;durP1;ratioP1;P2;durP2;ratioP2
33152;SDS011;19509;43.862;26.176;2022-09-30T00:01:37;1.60;;;1.40;;
33152;SDS011;19509;43.862;26.176;2022-09-30T00:04:04;1.77;;;1.40;;
33152;SDS011;19509;43.862;26.176;2022-09-30T00:06:30;1.50;;;1.40;;
33152;SDS011;19509;43.862;26.176;2022-09-30T00:08:56;1.30;;;1.30;;
33152;SDS011;19509;43.862;26.176;2022-09-30T00:11:23;1.37;;;1.37;;
33152;SDS011;19509;43.862;26.176;2022-09-30T00:13:52;1.63;;;1.53;;
33152;SDS011;19509;43.862;26.176;2022-09-30T00:16:19;1.20;;;1.20;;
33152;SDS011;19509;43.862;26.176;2022-09-30T00:18:46;2.60;;;1.40;;
33152;SDS011;19509;43.862;26.176;2022-09-30T00:21:13;1.23;;;1.23;;
33152;SDS011;19509;43.862;26.176;2022-09-30T00:23:40;1.43;;;1.33;;
33152;SDS011;19509;43.862;26.176;2022-09-30T00:26:09;1.30;;;1.30;;
33152;SDS011;19509;43.862;26.176;2022-09-30T00:28:37;1.33;;;1.23;;
33152;SDS011;19509;43.862;26.176;2022-09-30T00:31:04;2.03;;;1.40;;
33152;SDS011;19509;43.862;26.176;2022-09-30T00:33:32;2.17;;;1.50;;
33152;SDS011;19509;43.862;26.176;2022-09-30T00:35:58;1.87;;;1.50;;
33152;SDS011;19509;43.862;26.176;2022-09-30T00:38:24;2.00;;;1.30;;
33152;SDS011;19509;43.862;26.176;2022-09-30T00:40:50;1.90;;;1.40;;
33152;SDS011;19509;43.862;26.176;2022-09-30T00:43:17;1.27;;;1.27;;
33152;SDS011;19509;43.862;26.176;2022-09-30T00:45:48;1.30;;;1.30;;
33152;SDS011;19509;43.862;26.176;2022-09-30T00:48:18;1.40;;;1.40;;
33152;SDS011;19509;43.862;26.176;2022-09-30T00:50:48;1.47;;;1.47;;
33152;SDS011;19509;43.862;26.176;2022-09-30T00:53:29;1.20;;;1.20;;
33152;SDS011;19509;43.862;26.176;2022-09-30T00:56:11;1.60;;;1.50;;
33152;SDS011;19509;43.862;26.176;2022-09-30T00:58:45;1.40;;;1.40;;
33152;SDS011;19509;43.862;26.176;2022-09-30T01:01:16;1.53;;;1.43;;
33152;SDS011;19509;43.862;26.176;2022-09-30T01:04:02;1.50;;;1.50;;
33152;SDS011;19509;43.862;26.176;2022-09-30T01:06:34;1.93;;;1.60;;
33152;SDS011;19509;43.862;26.176;2022-09-30T01:08:59;1.40;;;1.40;;
33152;SDS011;19509;43.862;26.176;2022-09-30T01:11:26;1.60;;;1.50;;
33152;SDS011;19509;43.862;26.176;2022-09-30T01:13:54;1.50;;;1.50;;
33152;SDS011;19509;43.862;26.176;2022-09-30T01:22:25;1.70;;;1.60;;
33152;SDS011;19509;43.862;26.176;2022-09-30T01:39:14;1.73;;;1.50;;
33152;SDS011;19509;43.862;26.176;2022-09-30T01:49:47;1.60;;;1.50;;
33152;SDS011;19509;43.862;26.176;2022-09-30T01:52:29;1.70;;;1.60;;
33152;SDS011;19509;43.862;26.176;2022-09-30T01:55:05;2.53;;;1.80;;
33152;SDS011;19509;43.862;26.176;2022-09-30T02:00:35;1.60;;;1.50;;
33152;SDS011;19509;43.862;26.176;2022-09-30T02:03:14;1.40;;;1.40;;
33152;SDS011;19509;43.862;26.176;2022-09-30T02:05:52;3.17;;;1.50;;
33152;SDS011;19509;43.862;26.176;2022-09-30T02:08:23;1.50;;;1.40;;
33152;SDS011;19509;43.862;26.176;2022-09-30T02:11:00;1.70;;;1.60;;
33152;SDS011;19509;43.862;26.176;2022-09-30T02:13:38;2.67;;;1.50;;
33152;SDS011;19509;43.862;26.176;2022-09-30T02:16:11;1.57;;;1.57;;
33152;SDS011;19509;43.862;26.176;2022-09-30T02:18:45;1.43;;;1.43;;
33152;SDS011;19509;43.862;26.176;2022-09-30T02:21:15;1.50;;;1.40;;
33152;SDS011;19509;43.862;26.176;2022-09-30T02:23:46;1.63;;;1.53;;
33152;SDS011;19509;43.862;26.176;2022-09-30T02:26:14;2.00;;;1.50;;
33152;SDS011;19509;43.862;26.176;2022-09-30T02:28:45;1.43;;;1.43;;
33152;SDS011;19509;43.862;26.176;2022-09-30T02:31:15;2.13;;;1.60;;
33152;SDS011;19509;43.862;26.176;2022-09-30T02:33:45;1.77;;;1.67;;
33152;SDS011;19509;43.862;26.176;2022-09-30T02:38:44;1.80;;;1.70;;
33152;SDS011;19509;43.862;26.176;2022-09-30T02:41:16;1.80;;;1.40;;
33152;SDS011;19509;43.862;26.176;2022-09-30T02:43:46;1.87;;;1.70;;
33152;SDS011;19509;43.862;26.176;2022-09-30T02:54:32;1.40;;;1.40;;
33152;SDS011;19509;43.862;26.176;2022-09-30T02:59:41;1.43;;;1.43;;
33152;SDS011;19509;43.862;26.176;2022-09-30T03:02:07;1.43;;;1.43;;
33152;SDS011;19509;43.862;26.176;2022-09-30T03:04:32;1.73;;;1.63;;
33152;SDS011;19509;43.862;26.176;2022-09-30T03:06:59;1.50;;;1.40;;
33152;SDS011;19509;43.862;26.176;2022-09-30T03:09:26;1.60;;;1.60;;
33152;SDS011;19509;43.862;26.176;2022-09-30T03:31:14;1.60;;;1.60;;
33152;SDS011;19509;43.862;26.176;2022-09-30T03:33:52;1.40;;;1.40;;
33152;SDS011;19509;43.862;26.176;2022-09-30T03:38:52;1.40;;;1.40;;
33152;SDS011;19509;43.862;26.176;2022-09-30T03:47:18;1.60;;;1.60;;
33152;SDS011;19509;43.862;26.176;2022-09-30T03:49:50;1.40;;;1.37;;
33152;SDS011;19509;43.862;26.176;2022-09-30T03:52:19;1.60;;;1.60;;
33152;SDS011;19509;43.862;26.176;2022-09-30T03:54:53;1.50;;;1.40;;
33152;SDS011;19509;43.862;26.176;2022-09-30T03:57:24;2.00;;;1.73;;
33152;SDS011;19509;43.862;26.176;2022-09-30T03:59:52;1.57;;;1.57;;
33152;SDS011;19509;43.862;26.176;2022-09-30T04:02:18;1.60;;;1.60;;
33152;SDS011;19509;43.862;26.176;2022-09-30T04:04:44;1.50;;;1.50;;
33152;SDS011;19509;43.862;26.176;2022-09-30T04:07:10;1.73;;;1.63;;
33152;SDS011;19509;43.862;26.176;2022-09-30T04:09:36;1.50;;;1.50;;
33152;SDS011;19509;43.862;26.176;2022-09-30T04:12:03;1.90;;;1.80;;
33152;SDS011;19509;43.862;26.176;2022-09-30T04:14:29;1.60;;;1.60;;
33152;SDS011;19509;43.862;26.176;2022-09-30T04:16:55;6.67;;;2.33;;
33152;SDS011;19509;43.862;26.176;2022-09-30T04:19:21;1.50;;;1.50;;
33152;SDS011;19509;43.862;26.176;2022-09-30T04:21:46;3.63;;;1.63;;
33152;SDS011;19509;43.862;26.176;2022-09-30T04:24:14;1.77;;;1.67;;
33152;SDS011;19509;43.862;26.176;2022-09-30T04:26:40;1.60;;;1.60;;
33152;SDS011;19509;43.862;26.176;2022-09-30T04:29:05;1.40;;;1.40;;
33152;SDS011;19509;43.862;26.176;2022-09-30T04:31:31;1.70;;;1.60;;
33152;SDS011;19509;43.862;26.176;2022-09-30T04:33:56;1.53;;;1.50;;
33152;SDS011;19509;43.862;26.176;2022-09-30T04:36:22;1.53;;;1.50;;
33152;SDS011;19509;43.862;26.176;2022-09-30T04:38:47;1.60;;;1.60;;
33152;SDS011;19509;43.862;26.176;2022-09-30T04:41:14;2.37;;;1.50;;
33152;SDS011;19509;43.862;26.176;2022-09-30T04:43:42;1.50;;;1.50;;
33152;SDS011;19509;43.862;26.176;2022-09-30T04:46:14;1.63;;;1.60;;
33152;SDS011;19509;43.862;26.176;2022-09-30T04:48:40;1.80;;;1.70;;
33152;SDS011;19509;43.862;26.176;2022-09-30T04:51:10;1.80;;;1.80;;
33152;SDS011;19509;43.862;26.176;2022-09-30T04:53:39;1.80;;;1.70;;
33152;SDS011;19509;43.862;26.176;2022-09-30T04:56:05;1.50;;;1.40;;
33152;SDS011;19509;43.862;26.176;2022-09-30T04:58:31;1.67;;;1.60;;
33152;SDS011;19509;43.862;26.176;2022-09-30T05:01:01;2.13;;;1.50;;
33152;SDS011;19509;43.862;26.176;2022-09-30T05:03:27;1.70;;;1.60;;
33152;SDS011;19509;43.862;26.176;2022-09-30T05:05:53;1.53;;;1.53;;
33152;SDS011;19509;43.862;26.176;2022-09-30T05:08:19;1.60;;;1.60;;
33152;SDS011;19509;43.862;26.176;2022-09-30T05:10:56;1.30;;;1.30;;
33152;SDS011;19509;43.862;26.176;2022-09-30T05:13:32;1.67;;;1.57;;
33152;SDS011;19509;43.862;26.176;2022-09-30T05:15:59;1.50;;;1.40;;
33152;SDS011;19509;43.862;26.176;2022-09-30T05:18:25;1.67;;;1.57;;
33152;SDS011;19509;43.862;26.176;2022-09-30T05:20:51;1.50;;;1.40;;
33152;SDS011;19509;43.862;26.176;2022-09-30T05:23:17;1.50;;;1.50;;
33152;SDS011;19509;43.862;26.176;2022-09-30T05:25:44;1.50;;;1.40;;
33152;SDS011;19509;43.862;26.176;2022-09-30T05:28:10;1.60;;;1.50;;
33152;SDS011;19509;43.862;26.176;2022-09-30T05:30:36;1.40;;;1.40;;
33152;SDS011;19509;43.862;26.176;2022-09-30T05:33:02;1.30;;;1.30;;
33152;SDS011;19509;43.862;26.176;2022-09-30T05:35:28;1.30;;;1.30;;
33152;SDS011;19509;43.862;26.176;2022-09-30T05:37:54;1.83;;;1.50;;
33152;SDS011;19509;43.862;26.176;2022-09-30T05:40:20;1.50;;;1.50;;
33152;SDS011;19509;43.862;26.176;2022-09-30T05:42:45;3.30;;;1.33;;
33152;SDS011;19509;43.862;26.176;2022-09-30T05:45:11;1.50;;;1.50;;
33152;SDS011;19509;43.862;26.176;2022-09-30T05:47:37;1.80;;;1.70;;
33152;SDS011;19509;43.862;26.176;2022-09-30T05:50:03;1.43;;;1.43;;
33152;SDS011;19509;43.862;26.176;2022-09-30T05:52:29;1.30;;;1.30;;
33152;SDS011;19509;43.862;26.176;2022-09-30T05:54:55;1.23;;;1.23;;
33152;SDS011;19509;43.862;26.176;2022-09-30T05:57:23;1.40;;;1.40;;
33152;SDS011;19509;43.862;26.176;2022-09-30T05:59:49;1.50;;;1.30;;
33152;SDS011;19509;43.862;26.176;2022-09-30T06:02:15;1.23;;;1.23;;
33152;SDS011;19509;43.862;26.176;2022-09-30T06:04:40;1.30;;;1.30;;
33152;SDS011;19509;43.862;26.176;2022-09-30T06:07:05;1.47;;;1.47;;
33152;SDS011;19509;43.862;26.176;2022-09-30T06:09:31;1.27;;;1.27;;
33152;SDS011;19509;43.862;26.176;2022-09-30T06:11:57;1.20;;;1.20;;
33152;SDS011;19509;43.862;26.176;2022-09-30T06:14:24;1.50;;;1.40;;
33152;SDS011;19509;43.862;26.176;2022-09-30T06:16:49;1.30;;;1.20;;
33152;SDS011;19509;43.862;26.176;2022-09-30T06:19:15;1.30;;;1.30;;
33152;SDS011;19509;43.862;26.176;2022-09-30T06:21:40;4.40;;;1.20;;
33152;SDS011;19509;43.862;26.176;2022-09-30T06:24:06;1.30;;;1.20;;
33152;SDS011;19509;43.862;26.176;2022-09-30T06:26:37;1.10;;;1.10;;
33152;SDS011;19509;43.862;26.176;2022-09-30T06:29:03;1.20;;;1.20;;
33152;SDS011;19509;43.862;26.176;2022-09-30T06:31:29;1.10;;;1.10;;
33152;SDS011;19509;43.862;26.176;2022-09-30T06:33:55;1.27;;;1.10;;
33152;SDS011;19509;43.862;26.176;2022-09-30T06:36:21;1.43;;;1.37;;
33152;SDS011;19509;43.862;26.176;2022-09-30T06:38:47;1.10;;;1.10;;
33152;SDS011;19509;43.862;26.176;2022-09-30T06:41:15;1.10;;;1.10;;
33152;SDS011;19509;43.862;26.176;2022-09-30T06:43:41;1.33;;;1.00;;
33152;SDS011;19509;43.862;26.176;2022-09-30T06:46:07;1.17;;;1.10;;
33152;SDS011;19509;43.862;26.176;2022-09-30T06:48:33;1.20;;;1.10;;
33152;SDS011;19509;43.862;26.176;2022-09-30T06:50:58;0.90;;;0.90;;
33152;SDS011;19509;43.862;26.176;2022-09-30T06:53:24;1.00;;;1.00;;
33152;SDS011;19509;43.862;26.176;2022-09-30T06:55:57;2.13;;;1.20;;
33152;SDS011;19509;43.862;26.176;2022-09-30T06:58:23;1.00;;;1.00;;
33152;SDS011;19509;43.862;26.176;2022-09-30T07:00:58;1.20;;;1.17;;
33152;SDS011;19509;43.862;26.176;2022-09-30T07:03:27;1.47;;;1.10;;
33152;SDS011;19509;43.862;26.176;2022-09-30T07:06:00;1.40;;;1.30;;
33152;SDS011;19509;43.862;26.176;2022-09-30T07:08:28;1.07;;;1.00;;
33152;SDS011;19509;43.862;26.176;2022-09-30T07:10:59;1.00;;;1.00;;
33152;SDS011;19509;43.862;26.176;2022-09-30T07:13:26;1.00;;;1.00;;
33152;SDS011;19509;43.862;26.176;2022-09-30T07:15:52;1.07;;;1.07;;
33152;SDS011;19509;43.862;26.176;2022-09-30T07:18:20;1.00;;;1.00;;
33152;SDS011;19509;43.862;26.176;2022-09-30T07:20:50;1.30;;;1.00;;
33152;SDS011;19509;43.862;26.176;2022-09-30T07:23:17;1.30;;;1.20;;
33152;SDS011;19509;43.862;26.176;2022-09-30T07:28:14;1.60;;;1.20;;
33152;SDS011;19509;43.862;26.176;2022-09-30T07:30:41;1.10;;;1.10;;
33152;SDS011;19509;43.862;26.176;2022-09-30T07:33:07;1.70;;;1.10;;
33152;SDS011;19509;43.862;26.176;2022-09-30T07:35:33;1.23;;;1.13;;
33152;SDS011;19509;43.862;26.176;2022-09-30T07:37:59;1.03;;;1.03;;
33152;SDS011;19509;43.862;26.176;2022-09-30T07:40:25;1.00;;;1.00;;
33152;SDS011;19509;43.862;26.176;2022-09-30T07:42:55;0.93;;;0.93;;
33152;SDS011;19509;43.862;26.176;2022-09-30T07:45:22;1.10;;;1.10;;
33152;SDS011;19509;43.862;26.176;2022-09-30T07:47:48;1.07;;;1.07;;
33152;SDS011;19509;43.862;26.176;2022-09-30T07:50:14;2.60;;;1.40;;
33152;SDS011;19509;43.862;26.176;2022-09-30T07:52:40;1.77;;;0.97;;
33152;SDS011;19509;43.862;26.176;2022-09-30T07:55:05;1.00;;;1.00;;
33152;SDS011;19509;43.862;26.176;2022-09-30T07:57:31;0.90;;;0.90;;
33152;SDS011;19509;43.862;26.176;2022-09-30T07:59:57;1.20;;;1.20;;
33152;SDS011;19509;43.862;26.176;2022-09-30T08:02:22;2.77;;;1.10;;
33152;SDS011;19509;43.862;26.176;2022-09-30T08:04:48;1.13;;;1.13;;
33152;SDS011;19509;43.862;26.176;2022-09-30T08:07:14;1.30;;;1.20;;
33152;SDS011;19509;43.862;26.176;2022-09-30T08:09:41;1.30;;;1.30;;
33152;SDS011;19509;43.862;26.176;2022-09-30T08:12:07;1.10;;;1.10;;
33152;SDS011;19509;43.862;26.176;2022-09-30T08:14:33;0.97;;;0.90;;
33152;SDS011;19509;43.862;26.176;2022-09-30T08:16:59;1.00;;;1.00;;
33152;SDS011;19509;43.862;26.176;2022-09-30T08:19:25;1.07;;;1.00;;
33152;SDS011;19509;43.862;26.176;2022-09-30T08:21:52;0.90;;;0.90;;
33152;SDS011;19509;43.862;26.176;2022-09-30T08:24:18;1.90;;;1.80;;
33152;SDS011;19509;43.862;26.176;2022-09-30T08:26:44;3.40;;;1.10;;
33152;SDS011;19509;43.862;26.176;2022-09-30T08:29:10;1.27;;;1.17;;
33152;SDS011;19509;43.862;26.176;2022-09-30T08:31:37;1.00;;;1.00;;
33152;SDS011;19509;43.862;26.176;2022-09-30T08:34:03;1.30;;;1.30;;
33152;SDS011;19509;43.862;26.176;2022-09-30T08:36:28;1.10;;;1.00;;
33152;SDS011;19509;43.862;26.176;2022-09-30T08:38:54;0.97;;;0.93;;
33152;SDS011;19509;43.862;26.176;2022-09-30T08:44:25;1.10;;;1.00;;
33152;SDS011;19509;43.862;26.176;2022-09-30T08:52:19;3.60;;;1.10;;
33152;SDS011;19509;43.862;26.176;2022-09-30T08:54:57;1.47;;;1.10;;
33152;SDS011;19509;43.862;26.176;2022-09-30T08:57:34;1.10;;;1.10;;
33152;SDS011;19509;43.862;26.176;2022-09-30T09:00:03;1.47;;;1.37;;
33152;SDS011;19509;43.862;26.176;2022-09-30T09:08:19;1.17;;;0.90;;
33152;SDS011;19509;43.862;26.176;2022-09-30T09:11:10;0.90;;;0.90;;
33152;SDS011;19509;43.862;26.176;2022-09-30T09:13:49;1.70;;;1.10;;
33152;SDS011;19509;43.862;26.176;2022-09-30T09:16:41;1.00;;;1.00;;
33152;SDS011;19509;43.862;26.176;2022-09-30T09:19:28;0.97;;;0.97;;
33152;SDS011;19509;43.862;26.176;2022-09-30T09:22:07;0.90;;;0.90;;
33152;SDS011;19509;43.862;26.176;2022-09-30T09:24:36;1.17;;;1.07;;
33152;SDS011;19509;43.862;26.176;2022-09-30T09:27:28;1.33;;;1.23;;
33152;SDS011;19509;43.862;26.176;2022-09-30T09:30:09;2.30;;;1.10;;
33152;SDS011;19509;43.862;26.176;2022-09-30T09:32:37;0.97;;;0.97;;
33152;SDS011;19509;43.862;26.176;2022-09-30T09:35:16;1.27;;;1.23;;
33152;SDS011;19509;43.862;26.176;2022-09-30T09:37:56;1.13;;;1.13;;
33152;SDS011;19509;43.862;26.176;2022-09-30T09:46:28;1.73;;;1.20;;
33152;SDS011;19509;43.862;26.176;2022-09-30T09:57:11;1.03;;;1.03;;
33152;SDS011;19509;43.862;26.176;2022-09-30T09:59:56;0.90;;;0.90;;
33152;SDS011;19509;43.862;26.176;2022-09-30T10:06:06;1.20;;;1.00;;
33152;SDS011;19509;43.862;26.176;2022-09-30T10:08:36;1.20;;;1.20;;
33152;SDS011;19509;43.862;26.176;2022-09-30T10:11:16;1.00;;;1.00;;
33152;SDS011;19509;43.862;26.176;2022-09-30T10:13:45;1.20;;;1.20;;
33152;SDS011;19509;43.862;26.176;2022-09-30T10:16:32;1.23;;;1.17;;
33152;SDS011;19509;43.862;26.176;2022-09-30T10:19:04;0.97;;;0.97;;
33152;SDS011;19509;43.862;26.176;2022-09-30T10:21:45;3.57;;;1.30;;
33152;SDS011;19509;43.862;26.176;2022-09-30T10:26:53;1.10;;;1.10;;
33152;SDS011;19509;43.862;26.176;2022-09-30T10:29:25;1.10;;;1.10;;
33152;SDS011;19509;43.862;26.176;2022-09-30T10:31:51;1.07;;;1.07;;
33152;SDS011;19509;43.862;26.176;2022-09-30T10:36:52;1.10;;;1.10;;
33152;SDS011;19509;43.862;26.176;2022-09-30T10:39:20;1.43;;;1.00;;
33152;SDS011;19509;43.862;26.176;2022-09-30T10:42:07;1.20;;;1.10;;
33152;SDS011;19509;43.862;26.176;2022-09-30T10:47:17;1.00;;;1.00;;
33152;SDS011;19509;43.862;26.176;2022-09-30T10:49:51;1.10;;;0.97;;
33152;SDS011;19509;43.862;26.176;2022-09-30T10:52:23;0.90;;;0.90;;
33152;SDS011;19509;43.862;26.176;2022-09-30T10:54:55;0.90;;;0.90;;
33152;SDS011;19509;43.862;26.176;2022-09-30T10:57:23;0.90;;;0.90;;
33152;SDS011;19509;43.862;26.176;2022-09-30T10:59:51;1.00;;;1.00;;
33152;SDS011;19509;43.862;26.176;2022-09-30T11:05:02;1.00;;;1.00;;
33152;SDS011;19509;43.862;26.176;2022-09-30T11:10:05;1.00;;;1.00;;
33152;SDS011;19509;43.862;26.176;2022-09-30T11:12:43;1.13;;;1.13;;
33152;SDS011;19509;43.862;26.176;2022-09-30T11:15:16;3.67;;;1.07;;
33152;SDS011;19509;43.862;26.176;2022-09-30T11:18:01;1.10;;;1.07;;
33152;SDS011;19509;43.862;26.176;2022-09-30T11:20:44;2.30;;;1.03;;
33152;SDS011;19509;43.862;26.176;2022-09-30T11:31:38;1.20;;;1.10;;
33152;SDS011;19509;43.862;26.176;2022-09-30T11:34:31;3.60;;;1.17;;
33152;SDS011;19509;43.862;26.176;2022-09-30T11:53:41;1.10;;;1.10;;
33152;SDS011;19509;43.862;26.176;2022-09-30T11:58:46;1.07;;;1.07;;
33152;SDS011;19509;43.862;26.176;2022-09-30T12:01:26;1.20;;;1.10;;
33152;SDS011;19509;43.862;26.176;2022-09-30T12:07:00;1.20;;;1.10;;
33152;SDS011;19509;43.862;26.176;2022-09-30T12:09:31;1.13;;;1.00;;
33152;SDS011;19509;43.862;26.176;2022-09-30T12:12:05;0.90;;;0.90;;
33152;SDS011;19509;43.862;26.176;2022-09-30T12:14:44;1.63;;;1.00;;
33152;SDS011;19509;43.862;26.176;2022-09-30T12:20:14;1.57;;;0.90;;
33152;SDS011;19509;43.862;26.176;2022-09-30T12:22:48;1.13;;;1.03;;
33152;SDS011;19509;43.862;26.176;2022-09-30T12:25:17;1.20;;;1.10;;
33152;SDS011;19509;43.862;26.176;2022-09-30T12:30:49;1.00;;;1.00;;
33152;SDS011;19509;43.862;26.176;2022-09-30T12:33:40;1.00;;;1.00;;
33152;SDS011;19509;43.862;26.176;2022-09-30T12:36:27;1.27;;;1.10;;
33152;SDS011;19509;43.862;26.176;2022-09-30T12:47:55;1.17;;;1.17;;
33152;SDS011;19509;43.862;26.176;2022-09-30T12:50:27;0.90;;;0.90;;
33152;SDS011;19509;43.862;26.176;2022-09-30T12:53:02;1.00;;;1.00;;
33152;SDS011;19509;43.862;26.176;2022-09-30T12:55:53;1.10;;;1.10;;
33152;SDS011;19509;43.862;26.176;2022-09-30T12:58:31;1.10;;;1.00;;
33152;SDS011;19509;43.862;26.176;2022-09-30T13:01:07;1.63;;;1.00;;
33152;SDS011;19509;43.862;26.176;2022-09-30T13:03:49;1.00;;;1.00;;
33152;SDS011;19509;43.862;26.176;2022-09-30T13:06:23;1.00;;;1.00;;
33152;SDS011;19509;43.862;26.176;2022-09-30T13:11:42;1.43;;;1.10;;
33152;SDS011;19509;43.862;26.176;2022-09-30T13:16:57;1.10;;;1.10;;
33152;SDS011;19509;43.862;26.176;2022-09-30T13:32:44;1.97;;;1.10;;
33152;SDS011;19509;43.862;26.176;2022-09-30T13:35:33;1.00;;;1.00;;
33152;SDS011;19509;43.862;26.176;2022-09-30T13:40:49;1.70;;;1.00;;
33152;SDS011;19509;43.862;26.176;2022-09-30T13:43:27;2.03;;;1.10;;
33152;SDS011;19509;43.862;26.176;2022-09-30T13:46:13;1.37;;;1.03;;
33152;SDS011;19509;43.862;26.176;2022-09-30T13:48:44;3.53;;;1.00;;
33152;SDS011;19509;43.862;26.176;2022-09-30T13:51:13;2.20;;;1.20;;
33152;SDS011;19509;43.862;26.176;2022-09-30T13:53:47;1.97;;;1.10;;
33152;SDS011;19509;43.862;26.176;2022-09-30T13:56:19;1.03;;;1.03;;
33152;SDS011;19509;43.862;26.176;2022-09-30T13:59:03;1.00;;;1.00;;
33152;SDS011;19509;43.862;26.176;2022-09-30T14:01:56;1.10;;;1.00;;
33152;SDS011;19509;43.862;26.176;2022-09-30T14:04:41;1.73;;;1.13;;
33152;SDS011;19509;43.862;26.176;2022-09-30T14:13:04;1.50;;;0.90;;
33152;SDS011;19509;43.862;26.176;2022-09-30T14:22:00;0.80;;;0.80;;
33152;SDS011;19509;43.862;26.176;2022-09-30T14:24:33;2.00;;;1.10;;
33152;SDS011;19509;43.862;26.176;2022-09-30T14:35:18;2.17;;;1.13;;
33152;SDS011;19509;43.862;26.176;2022-09-30T14:37:51;1.37;;;1.10;;
33152;SDS011;19509;43.862;26.176;2022-09-30T14:40:27;1.10;;;1.10;;
33152;SDS011;19509;43.862;26.176;2022-09-30T14:42:58;1.20;;;1.10;;
33152;SDS011;19509;43.862;26.176;2022-09-30T14:45:30;1.67;;;1.10;;
33152;SDS011;19509;43.862;26.176;2022-09-30T14:47:59;1.43;;;1.00;;
33152;SDS011;19509;43.862;26.176;2022-09-30T14:50:34;1.53;;;1.20;;
33152;SDS011;19509;43.862;26.176;2022-09-30T14:53:02;1.77;;;1.13;;
33152;SDS011;19509;43.862;26.176;2022-09-30T14:55:36;2.10;;;1.10;;
33152;SDS011;19509;43.862;26.176;2022-09-30T15:00:48;2.83;;;1.20;;
33152;SDS011;19509;43.862;26.176;2022-09-30T15:03:22;1.30;;;1.20;;
33152;SDS011;19509;43.862;26.176;2022-09-30T15:05:48;1.30;;;1.17;;
33152;SDS011;19509;43.862;26.176;2022-09-30T15:08:18;3.43;;;1.20;;
33152;SDS011;19509;43.862;26.176;2022-09-30T15:10:48;1.10;;;1.10;;
33152;SDS011;19509;43.862;26.176;2022-09-30T15:13:19;1.10;;;1.10;;
33152;SDS011;19509;43.862;26.176;2022-09-30T15:15:47;4.20;;;1.20;;
33152;SDS011;19509;43.862;26.176;2022-09-30T15:18:26;2.40;;;1.10;;
33152;SDS011;19509;43.862;26.176;2022-09-30T15:20:56;1.50;;;1.40;;
33152;SDS011;19509;43.862;26.176;2022-09-30T15:23:30;2.20;;;1.20;;
33152;SDS011;19509;43.862;26.176;2022-09-30T15:25:57;4.23;;;1.53;;
33152;SDS011;19509;43.862;26.176;2022-09-30T15:28:24;4.47;;;1.57;;
33152;SDS011;19509;43.862;26.176;2022-09-30T15:30:50;2.83;;;1.53;;
33152;SDS011;19509;43.862;26.176;2022-09-30T15:33:19;3.03;;;1.37;;
33152;SDS011;19509;43.862;26.176;2022-09-30T15:35:48;4.63;;;1.30;;
33152;SDS011;19509;43.862;26.176;2022-09-30T15:38:21;1.40;;;1.30;;
33152;SDS011;19509;43.862;26.176;2022-09-30T15:40:58;2.50;;;1.50;;
33152;SDS011;19509;43.862;26.176;2022-09-30T15:43:34;1.10;;;1.10;;
33152;SDS011;19509;43.862;26.176;2022-09-30T15:48:51;1.30;;;1.20;;
33152;SDS011;19509;43.862;26.176;2022-09-30T15:53:57;1.70;;;1.07;;
33152;SDS011;19509;43.862;26.176;2022-09-30T15:56:26;1.53;;;0.97;;
33152;SDS011;19509;43.862;26.176;2022-09-30T15:58:58;1.60;;;1.50;;
33152;SDS011;19509;43.862;26.176;2022-09-30T16:01:45;1.67;;;1.40;;
33152;SDS011;19509;43.862;26.176;2022-09-30T16:09:33;2.17;;;1.10;;
33152;SDS011;19509;43.862;26.176;2022-09-30T16:17:04;1.10;;;1.10;;
33152;SDS011;19509;43.862;26.176;2022-09-30T16:19:30;1.00;;;1.00;;
33152;SDS011;19509;43.862;26.176;2022-09-30T16:21:57;4.10;;;1.30;;
33152;SDS011;19509;43.862;26.176;2022-09-30T16:26:52;1.10;;;1.10;;
33152;SDS011;19509;43.862;26.176;2022-09-30T16:29:19;1.23;;;1.13;;
33152;SDS011;19509;43.862;26.176;2022-09-30T16:31:47;1.70;;;1.20;;
33152;SDS011;19509;43.862;26.176;2022-09-30T16:34:21;1.87;;;1.40;;
33152;SDS011;19509;43.862;26.176;2022-09-30T16:36:49;3.77;;;1.60;;
33152;SDS011;19509;43.862;26.176;2022-09-30T16:39:16;1.20;;;1.20;;
33152;SDS011;19509;43.862;26.176;2022-09-30T16:41:43;1.40;;;1.40;;
33152;SDS011;19509;43.862;26.176;2022-09-30T16:44:09;1.30;;;1.30;;
33152;SDS011;19509;43.862;26.176;2022-09-30T16:46:35;1.97;;;1.40;;
33152;SDS011;19509;43.862;26.176;2022-09-30T16:49:10;1.17;;;1.17;;
33152;SDS011;19509;43.862;26.176;2022-09-30T16:51:39;1.30;;;1.30;;
33152;SDS011;19509;43.862;26.176;2022-09-30T16:54:05;1.33;;;1.30;;
33152;SDS011;19509;43.862;26.176;2022-09-30T16:56:30;1.70;;;1.40;;
33152;SDS011;19509;43.862;26.176;2022-09-30T16:58:56;1.73;;;1.30;;
33152;SDS011;19509;43.862;26.176;2022-09-30T17:01:22;2.30;;;1.53;;
33152;SDS011;19509;43.862;26.176;2022-09-30T17:03:49;1.50;;;1.40;;
33152;SDS011;19509;43.862;26.176;2022-09-30T17:06:17;3.03;;;1.50;;
33152;SDS011;19509;43.862;26.176;2022-09-30T17:08:47;1.80;;;1.60;;
33152;SDS011;19509;43.862;26.176;2022-09-30T17:11:12;1.20;;;1.20;;
33152;SDS011;19509;43.862;26.176;2022-09-30T17:13:39;1.90;;;1.50;;
33152;SDS011;19509;43.862;26.176;2022-09-30T17:16:05;1.30;;;1.30;;
33152;SDS011;19509;43.862;26.176;2022-09-30T17:18:30;1.50;;;1.40;;
33152;SDS011;19509;43.862;26.176;2022-09-30T17:20:56;1.83;;;1.73;;
33152;SDS011;19509;43.862;26.176;2022-09-30T17:23:22;1.50;;;1.40;;
33152;SDS011;19509;43.862;26.176;2022-09-30T17:25:49;1.77;;;1.67;;
33152;SDS011;19509;43.862;26.176;2022-09-30T17:28:16;1.50;;;1.50;;
33152;SDS011;19509;43.862;26.176;2022-09-30T17:30:45;4.30;;;1.70;;
33152;SDS011;19509;43.862;26.176;2022-09-30T17:33:12;2.00;;;1.80;;
33152;SDS011;19509;43.862;26.176;2022-09-30T17:35:38;1.57;;;1.40;;
33152;SDS011;19509;43.862;26.176;2022-09-30T17:38:07;1.67;;;1.57;;
33152;SDS011;19509;43.862;26.176;2022-09-30T17:40:34;1.60;;;1.60;;
33152;SDS011;19509;43.862;26.176;2022-09-30T17:43:18;3.57;;;1.70;;
33152;SDS011;19509;43.862;26.176;2022-09-30T17:45:44;1.80;;;1.70;;
33152;SDS011;19509;43.862;26.176;2022-09-30T17:48:11;1.90;;;1.67;;
33152;SDS011;19509;43.862;26.176;2022-09-30T17:50:38;1.80;;;1.70;;
33152;SDS011;19509;43.862;26.176;2022-09-30T17:53:08;2.07;;;1.87;;
33152;SDS011;19509;43.862;26.176;2022-09-30T17:55:37;6.50;;;1.60;;
33152;SDS011;19509;43.862;26.176;2022-09-30T17:58:03;1.57;;;1.53;;
33152;SDS011;19509;43.862;26.176;2022-09-30T18:00:31;1.83;;;1.73;;
33152;SDS011;19509;43.862;26.176;2022-09-30T18:02:57;1.43;;;1.30;;
33152;SDS011;19509;43.862;26.176;2022-09-30T18:05:23;1.67;;;1.57;;
33152;SDS011;19509;43.862;26.176;2022-09-30T18:07:52;1.70;;;1.60;;
33152;SDS011;19509;43.862;26.176;2022-09-30T18:10:18;3.23;;;1.80;;
33152;SDS011;19509;43.862;26.176;2022-09-30T18:12:43;1.73;;;1.70;;
33152;SDS011;19509;43.862;26.176;2022-09-30T18:15:11;1.60;;;1.50;;
33152;SDS011;19509;43.862;26.176;2022-09-30T18:17:37;2.30;;;1.40;;
33152;SDS011;19509;43.862;26.176;2022-09-30T18:20:02;3.77;;;1.60;;
33152;SDS011;19509;43.862;26.176;2022-09-30T18:22:28;2.00;;;1.80;;
33152;SDS011;19509;43.862;26.176;2022-09-30T18:24:54;6.47;;;1.93;;
33152;SDS011;19509;43.862;26.176;2022-09-30T18:27:38;3.43;;;1.60;;
33152;SDS011;19509;43.862;26.176;2022-09-30T18:30:04;1.80;;;1.70;;
33152;SDS011;19509;43.862;26.176;2022-09-30T18:32:30;1.90;;;1.80;;
33152;SDS011;19509;43.862;26.176;2022-09-30T18:34:56;2.23;;;1.50;;
33152;SDS011;19509;43.862;26.176;2022-09-30T18:37:26;1.70;;;1.60;;
33152;SDS011;19509;43.862;26.176;2022-09-30T18:39:52;2.20;;;1.47;;